sensor_id;sensor_type;location;lat;lon;timestamp;temperature;humidity
816;DHT22;25928;51.062;13.752;2023-04-10T00:01:00;9.30;1.00
816;DHT22;25928;51.062;13.752;2023-04-10T00:03:26;9.30;1.00
816;DHT22;25928;51.062;13.752;2023-04-10T00:05:52;9.30;1.00
816;DHT22;25928;51.062;13.752;2023-04-10T00:08:22;9.20;1.00
816;DHT22;25928;51.062;13.752;2023-04-10T00:10:48;9.20;1.00
816;DHT22;25928;51.062;13.752;2023-04-10T00:13:14;9.30;1.00
816;DHT22;25928;51.062;13.752;2023-04-10T00:15:40;9.30;1.00
816;DHT22;25928;51.062;13.752;2023-04-10T00:18:06;9.20;1.00
816;DHT22;25928;51.062;13.752;2023-04-10T00:20:32;9.20;1.00
816;DHT22;25928;51.062;13.752;2023-04-10T00:22:57;9.10;1.00
816;DHT22;25928;51.062;13.752;2023-04-10T00:25:23;9.50;1.00
816;DHT22;25928;51.062;13.752;2023-04-10T00:27:48;9.00;1.00
816;DHT22;25928;51.062;13.752;2023-04-10T00:30:14;8.90;1.00
816;DHT22;25928;51.062;13.752;2023-04-10T00:32:40;8.90;1.00
816;DHT22;25928;51.062;13.752;2023-04-10T00:35:07;8.90;1.00
816;DHT22;25928;51.062;13.752;2023-04-10T00:37:33;8.80;1.00
816;DHT22;25928;51.062;13.752;2023-04-10T00:39:58;8.80;1.00
816;DHT22;25928;51.062;13.752;2023-04-10T00:42:24;8.80;1.00
816;DHT22;25928;51.062;13.752;2023-04-10T00:44:50;8.70;1.00
816;DHT22;25928;51.062;13.752;2023-04-10T00:47:16;8.60;1.00
816;DHT22;25928;51.062;13.752;2023-04-10T00:49:42;8.60;1.00
816;DHT22;25928;51.062;13.752;2023-04-10T00:52:08;8.60;1.00
816;DHT22;25928;51.062;13.752;2023-04-10T00:54:35;8.60;1.00
816;DHT22;25928;51.062;13.752;2023-04-10T00:57:02;8.50;1.00
816;DHT22;25928;51.062;13.752;2023-04-10T00:59:29;8.50;1.00
816;DHT22;25928;51.062;13.752;2023-04-10T01:01:55;8.60;1.00
816;DHT22;25928;51.062;13.752;2023-04-10T01:04:21;8.60;1.00
816;DHT22;25928;51.062;13.752;2023-04-10T01:07:09;8.70;1.00
816;DHT22;25928;51.062;13.752;2023-04-10T01:10:04;8.60;1.00
816;DHT22;25928;51.062;13.752;2023-04-10T01:12:46;8.50;1.00
816;DHT22;25928;51.062;13.752;2023-04-10T01:15:23;8.40;1.00
816;DHT22;25928;51.062;13.752;2023-04-10T01:20:30;8.30;1.00
816;DHT22;25928;51.062;13.752;2023-04-10T01:23:11;8.20;1.00
816;DHT22;25928;51.062;13.752;2023-04-10T01:26:03;8.30;1.00
816;DHT22;25928;51.062;13.752;2023-04-10T01:28:52;8.30;1.00
816;DHT22;25928;51.062;13.752;2023-04-10T01:31:26;8.20;1.00
816;DHT22;25928;51.062;13.752;2023-04-10T01:33:58;8.20;1.00
816;DHT22;25928;51.062;13.752;2023-04-10T01:36:26;8.10;1.00
816;DHT22;25928;51.062;13.752;2023-04-10T01:38:56;8.10;1.00
816;DHT22;25928;51.062;13.752;2023-04-10T01:41:23;8.30;1.00
816;DHT22;25928;51.062;13.752;2023-04-10T01:43:50;8.20;1.00
816;DHT22;25928;51.062;13.752;2023-04-10T01:46:20;8.10;1.00
816;DHT22;25928;51.062;13.752;2023-04-10T01:48:47;8.10;1.00
816;DHT22;25928;51.062;13.752;2023-04-10T01:51:14;8.10;1.00
816;DHT22;25928;51.062;13.752;2023-04-10T01:53:43;8.10;1.00
816;DHT22;25928;51.062;13.752;2023-04-10T01:56:11;8.10;1.00
816;DHT22;25928;51.062;13.752;2023-04-10T01:58:37;8.10;1.00
816;DHT22;25928;51.062;13.752;2023-04-10T02:01:03;8.10;1.00
816;DHT22;25928;51.062;13.752;2023-04-10T02:03:29;8.00;1.00
816;DHT22;25928;51.062;13.752;2023-04-10T02:06:17;7.90;1.00
816;DHT22;25928;51.062;13.752;2023-04-10T02:08:58;7.90;1.00
816;DHT22;25928;51.062;13.752;2023-04-10T02:11:40;7.90;1.00
816;DHT22;25928;51.062;13.752;2023-04-10T02:14:10;7.80;1.00
816;DHT22;25928;51.062;13.752;2023-04-10T02:16:41;7.70;1.00
816;DHT22;25928;51.062;13.752;2023-04-10T02:19:09;7.70;1.00
816;DHT22;25928;51.062;13.752;2023-04-10T02:21:35;7.70;1.00
816;DHT22;25928;51.062;13.752;2023-04-10T02:24:02;7.70;1.00
816;DHT22;25928;51.062;13.752;2023-04-10T02:26:28;7.70;1.00
816;DHT22;25928;51.062;13.752;2023-04-10T02:28:54;7.60;1.00
816;DHT22;25928;51.062;13.752;2023-04-10T02:31:20;7.50;1.00
816;DHT22;25928;51.062;13.752;2023-04-10T02:33:45;7.50;1.00
816;DHT22;25928;51.062;13.752;2023-04-10T02:36:11;7.40;1.00
816;DHT22;25928;51.062;13.752;2023-04-10T02:38:37;7.40;1.00
816;DHT22;25928;51.062;13.752;2023-04-10T02:41:03;7.40;1.00
816;DHT22;25928;51.062;13.752;2023-04-10T02:43:28;7.40;1.00
816;DHT22;25928;51.062;13.752;2023-04-10T02:45:54;7.40;1.00
816;DHT22;25928;51.062;13.752;2023-04-10T02:48:20;7.30;1.00
816;DHT22;25928;51.062;13.752;2023-04-10T02:50:45;7.30;1.00
816;DHT22;25928;51.062;13.752;2023-04-10T02:53:15;7.40;1.00
816;DHT22;25928;51.062;13.752;2023-04-10T02:55:41;7.30;1.00
816;DHT22;25928;51.062;13.752;2023-04-10T02:58:07;7.30;1.00
816;DHT22;25928;51.062;13.752;2023-04-10T03:00:32;7.40;1.00
816;DHT22;25928;51.062;13.752;2023-04-10T03:02:58;7.50;1.00
816;DHT22;25928;51.062;13.752;2023-04-10T03:05:24;7.50;1.00
816;DHT22;25928;51.062;13.752;2023-04-10T03:07:49;7.50;1.00
816;DHT22;25928;51.062;13.752;2023-04-10T03:10:15;7.50;1.00
816;DHT22;25928;51.062;13.752;2023-04-10T03:12:40;7.60;1.00
816;DHT22;25928;51.062;13.752;2023-04-10T03:15:07;7.60;1.00
816;DHT22;25928;51.062;13.752;2023-04-10T03:17:33;7.70;1.00
816;DHT22;25928;51.062;13.752;2023-04-10T03:19:59;7.80;1.00
816;DHT22;25928;51.062;13.752;2023-04-10T03:22:24;7.80;1.00
816;DHT22;25928;51.062;13.752;2023-04-10T03:24:51;7.90;1.00
816;DHT22;25928;51.062;13.752;2023-04-10T03:27:17;8.00;1.00
816;DHT22;25928;51.062;13.752;2023-04-10T03:29:43;8.10;1.00
816;DHT22;25928;51.062;13.752;2023-04-10T03:32:09;8.10;1.00
816;DHT22;25928;51.062;13.752;2023-04-10T03:34:34;8.00;1.00
816;DHT22;25928;51.062;13.752;2023-04-10T03:37:00;7.90;1.00
816;DHT22;25928;51.062;13.752;2023-04-10T03:39:27;8.00;1.00
816;DHT22;25928;51.062;13.752;2023-04-10T03:41:53;8.00;1.00
816;DHT22;25928;51.062;13.752;2023-04-10T03:44:19;8.00;1.00
816;DHT22;25928;51.062;13.752;2023-04-10T03:46:44;7.90;1.00
816;DHT22;25928;51.062;13.752;2023-04-10T03:49:10;7.80;1.00
816;DHT22;25928;51.062;13.752;2023-04-10T03:51:36;7.80;1.00
816;DHT22;25928;51.062;13.752;2023-04-10T03:54:01;7.70;1.00
816;DHT22;25928;51.062;13.752;2023-04-10T03:56:27;7.60;1.00
816;DHT22;25928;51.062;13.752;2023-04-10T03:58:52;7.60;1.00
816;DHT22;25928;51.062;13.752;2023-04-10T04:01:18;7.50;1.00
816;DHT22;25928;51.062;13.752;2023-04-10T04:03:44;7.50;1.00
816;DHT22;25928;51.062;13.752;2023-04-10T04:06:09;7.40;1.00
816;DHT22;25928;51.062;13.752;2023-04-10T04:08:35;7.50;1.00
816;DHT22;25928;51.062;13.752;2023-04-10T04:11:03;7.40;1.00
816;DHT22;25928;51.062;13.752;2023-04-10T04:13:28;7.40;1.00
816;DHT22;25928;51.062;13.752;2023-04-10T04:15:54;7.40;1.00
816;DHT22;25928;51.062;13.752;2023-04-10T04:18:20;7.30;1.00
816;DHT22;25928;51.062;13.752;2023-04-10T04:20:45;7.30;1.00
816;DHT22;25928;51.062;13.752;2023-04-10T04:23:11;7.20;1.00
816;DHT22;25928;51.062;13.752;2023-04-10T04:25:37;7.30;1.00
816;DHT22;25928;51.062;13.752;2023-04-10T04:28:02;7.40;1.00
816;DHT22;25928;51.062;13.752;2023-04-10T04:30:28;7.50;1.00
816;DHT22;25928;51.062;13.752;2023-04-10T04:32:53;7.50;1.00
816;DHT22;25928;51.062;13.752;2023-04-10T04:35:19;7.60;1.00
816;DHT22;25928;51.062;13.752;2023-04-10T04:37:45;7.50;1.00
816;DHT22;25928;51.062;13.752;2023-04-10T04:40:11;7.60;1.00
816;DHT22;25928;51.062;13.752;2023-04-10T04:42:36;7.50;1.00
816;DHT22;25928;51.062;13.752;2023-04-10T04:45:02;7.60;1.00
816;DHT22;25928;51.062;13.752;2023-04-10T04:47:28;7.60;1.00
816;DHT22;25928;51.062;13.752;2023-04-10T04:49:53;7.60;1.00
816;DHT22;25928;51.062;13.752;2023-04-10T04:52:19;7.60;1.00
816;DHT22;25928;51.062;13.752;2023-04-10T04:54:44;7.70;1.00
816;DHT22;25928;51.062;13.752;2023-04-10T04:57:10;7.70;1.00
816;DHT22;25928;51.062;13.752;2023-04-10T04:59:36;7.70;1.00
816;DHT22;25928;51.062;13.752;2023-04-10T05:02:02;7.80;1.00
816;DHT22;25928;51.062;13.752;2023-04-10T05:04:28;7.70;1.00
816;DHT22;25928;51.062;13.752;2023-04-10T05:06:53;7.70;1.00
816;DHT22;25928;51.062;13.752;2023-04-10T05:09:19;7.70;1.00
816;DHT22;25928;51.062;13.752;2023-04-10T05:11:44;7.70;1.00
816;DHT22;25928;51.062;13.752;2023-04-10T05:14:10;7.70;1.00
816;DHT22;25928;51.062;13.752;2023-04-10T05:16:36;7.90;1.00
816;DHT22;25928;51.062;13.752;2023-04-10T05:19:01;7.90;1.00
816;DHT22;25928;51.062;13.752;2023-04-10T05:21:27;7.90;1.00
816;DHT22;25928;51.062;13.752;2023-04-10T05:23:53;7.90;1.00
816;DHT22;25928;51.062;13.752;2023-04-10T05:26:18;7.90;1.00
816;DHT22;25928;51.062;13.752;2023-04-10T05:28:44;7.80;1.00
816;DHT22;25928;51.062;13.752;2023-04-10T05:31:10;7.90;1.00
816;DHT22;25928;51.062;13.752;2023-04-10T05:33:35;7.90;1.00
816;DHT22;25928;51.062;13.752;2023-04-10T05:36:01;8.00;1.00
816;DHT22;25928;51.062;13.752;2023-04-10T05:38:27;8.10;1.00
816;DHT22;25928;51.062;13.752;2023-04-10T05:40:53;8.10;1.00
816;DHT22;25928;51.062;13.752;2023-04-10T05:43:19;8.20;1.00
816;DHT22;25928;51.062;13.752;2023-04-10T05:45:46;8.30;1.00
816;DHT22;25928;51.062;13.752;2023-04-10T05:48:11;8.40;1.00
816;DHT22;25928;51.062;13.752;2023-04-10T05:50:37;8.60;1.00
816;DHT22;25928;51.062;13.752;2023-04-10T05:53:03;8.70;1.00
816;DHT22;25928;51.062;13.752;2023-04-10T05:55:30;8.90;1.00
816;DHT22;25928;51.062;13.752;2023-04-10T05:57:56;9.00;1.00
816;DHT22;25928;51.062;13.752;2023-04-10T06:00:22;9.00;1.00
816;DHT22;25928;51.062;13.752;2023-04-10T06:02:47;9.10;1.00
816;DHT22;25928;51.062;13.752;2023-04-10T06:05:13;9.30;1.00
816;DHT22;25928;51.062;13.752;2023-04-10T06:07:39;9.40;1.00
816;DHT22;25928;51.062;13.752;2023-04-10T06:10:06;9.50;1.00
816;DHT22;25928;51.062;13.752;2023-04-10T06:12:32;9.70;1.00
816;DHT22;25928;51.062;13.752;2023-04-10T06:14:57;9.90;1.00
816;DHT22;25928;51.062;13.752;2023-04-10T06:17:23;9.90;1.00
816;DHT22;25928;51.062;13.752;2023-04-10T06:19:50;10.00;1.00
816;DHT22;25928;51.062;13.752;2023-04-10T06:22:15;9.90;1.00
816;DHT22;25928;51.062;13.752;2023-04-10T06:24:41;9.90;1.00
816;DHT22;25928;51.062;13.752;2023-04-10T06:27:07;9.90;1.00
816;DHT22;25928;51.062;13.752;2023-04-10T06:29:33;9.90;1.00
816;DHT22;25928;51.062;13.752;2023-04-10T06:31:58;9.90;1.00
816;DHT22;25928;51.062;13.752;2023-04-10T06:34:24;10.00;1.00
816;DHT22;25928;51.062;13.752;2023-04-10T06:36:50;10.10;1.00
816;DHT22;25928;51.062;13.752;2023-04-10T06:39:16;10.30;1.00
816;DHT22;25928;51.062;13.752;2023-04-10T06:41:42;10.50;1.00
816;DHT22;25928;51.062;13.752;2023-04-10T06:44:07;10.70;1.00
816;DHT22;25928;51.062;13.752;2023-04-10T06:46:33;10.80;1.00
816;DHT22;25928;51.062;13.752;2023-04-10T06:48:59;10.90;1.00
816;DHT22;25928;51.062;13.752;2023-04-10T06:51:24;11.00;1.00
816;DHT22;25928;51.062;13.752;2023-04-10T06:53:50;11.20;1.00
816;DHT22;25928;51.062;13.752;2023-04-10T06:56:15;11.30;1.00
816;DHT22;25928;51.062;13.752;2023-04-10T06:58:41;11.40;1.00
816;DHT22;25928;51.062;13.752;2023-04-10T07:01:07;11.60;1.00
816;DHT22;25928;51.062;13.752;2023-04-10T07:03:32;11.80;1.00
816;DHT22;25928;51.062;13.752;2023-04-10T07:05:59;11.90;1.00
816;DHT22;25928;51.062;13.752;2023-04-10T07:08:26;12.00;1.00
816;DHT22;25928;51.062;13.752;2023-04-10T07:10:51;12.10;1.00
816;DHT22;25928;51.062;13.752;2023-04-10T07:13:17;12.30;1.00
816;DHT22;25928;51.062;13.752;2023-04-10T07:15:43;12.50;1.00
816;DHT22;25928;51.062;13.752;2023-04-10T07:18:08;12.60;1.00
816;DHT22;25928;51.062;13.752;2023-04-10T07:20:34;12.70;1.00
816;DHT22;25928;51.062;13.752;2023-04-10T07:22:59;12.70;1.00
816;DHT22;25928;51.062;13.752;2023-04-10T07:25:25;12.70;1.00
816;DHT22;25928;51.062;13.752;2023-04-10T07:27:51;12.70;1.00
816;DHT22;25928;51.062;13.752;2023-04-10T07:30:18;12.80;1.00
816;DHT22;25928;51.062;13.752;2023-04-10T07:32:43;12.90;99.90
816;DHT22;25928;51.062;13.752;2023-04-10T07:35:10;12.90;99.90
816;DHT22;25928;51.062;13.752;2023-04-10T07:37:35;13.20;99.90
816;DHT22;25928;51.062;13.752;2023-04-10T07:40:01;13.30;99.90
816;DHT22;25928;51.062;13.752;2023-04-10T07:42:27;13.40;99.90
816;DHT22;25928;51.062;13.752;2023-04-10T07:44:53;13.70;99.90
816;DHT22;25928;51.062;13.752;2023-04-10T07:47:18;13.80;99.90
816;DHT22;25928;51.062;13.752;2023-04-10T07:49:44;13.90;99.90
816;DHT22;25928;51.062;13.752;2023-04-10T07:52:10;14.00;99.90
816;DHT22;25928;51.062;13.752;2023-04-10T07:54:35;14.20;99.90
816;DHT22;25928;51.062;13.752;2023-04-10T07:57:01;14.20;99.90
816;DHT22;25928;51.062;13.752;2023-04-10T07:59:27;14.20;99.90
816;DHT22;25928;51.062;13.752;2023-04-10T08:01:53;14.30;99.90
816;DHT22;25928;51.062;13.752;2023-04-10T08:04:19;14.50;99.90
816;DHT22;25928;51.062;13.752;2023-04-10T08:06:45;14.60;99.90
816;DHT22;25928;51.062;13.752;2023-04-10T08:09:10;14.70;99.90
816;DHT22;25928;51.062;13.752;2023-04-10T08:11:36;14.90;99.90
816;DHT22;25928;51.062;13.752;2023-04-10T08:14:02;14.90;99.90
816;DHT22;25928;51.062;13.752;2023-04-10T08:16:30;14.80;99.90
816;DHT22;25928;51.062;13.752;2023-04-10T08:18:58;15.00;99.90
816;DHT22;25928;51.062;13.752;2023-04-10T08:21:24;15.40;99.90
816;DHT22;25928;51.062;13.752;2023-04-10T08:23:56;15.60;99.90
816;DHT22;25928;51.062;13.752;2023-04-10T08:26:22;15.60;99.90
816;DHT22;25928;51.062;13.752;2023-04-10T08:28:49;15.80;99.90
816;DHT22;25928;51.062;13.752;2023-04-10T08:31:16;15.80;99.90
816;DHT22;25928;51.062;13.752;2023-04-10T08:33:42;15.90;99.90
816;DHT22;25928;51.062;13.752;2023-04-10T08:36:08;16.00;99.90
816;DHT22;25928;51.062;13.752;2023-04-10T08:38:34;16.00;99.90
816;DHT22;25928;51.062;13.752;2023-04-10T08:40:59;16.00;99.90
816;DHT22;25928;51.062;13.752;2023-04-10T08:43:25;16.10;99.90
816;DHT22;25928;51.062;13.752;2023-04-10T08:45:52;16.50;99.90
816;DHT22;25928;51.062;13.752;2023-04-10T08:48:18;16.60;99.90
816;DHT22;25928;51.062;13.752;2023-04-10T08:50:46;16.80;99.90
816;DHT22;25928;51.062;13.752;2023-04-10T08:53:14;16.80;99.90
816;DHT22;25928;51.062;13.752;2023-04-10T08:55:41;16.90;99.90
816;DHT22;25928;51.062;13.752;2023-04-10T08:58:09;16.90;99.90
816;DHT22;25928;51.062;13.752;2023-04-10T09:00:36;17.00;99.90
816;DHT22;25928;51.062;13.752;2023-04-10T09:03:08;17.10;99.90
816;DHT22;25928;51.062;13.752;2023-04-10T09:05:36;17.00;99.90
816;DHT22;25928;51.062;13.752;2023-04-10T09:08:07;17.00;99.90
816;DHT22;25928;51.062;13.752;2023-04-10T09:10:33;17.10;99.90
816;DHT22;25928;51.062;13.752;2023-04-10T09:12:59;17.20;99.90
816;DHT22;25928;51.062;13.752;2023-04-10T09:15:25;17.50;99.90
816;DHT22;25928;51.062;13.752;2023-04-10T09:17:58;18.00;99.90
816;DHT22;25928;51.062;13.752;2023-04-10T09:20:25;18.00;99.90
816;DHT22;25928;51.062;13.752;2023-04-10T09:22:51;17.80;99.90
816;DHT22;25928;51.062;13.752;2023-04-10T09:25:35;17.70;99.90
816;DHT22;25928;51.062;13.752;2023-04-10T09:28:05;17.50;99.90
816;DHT22;25928;51.062;13.752;2023-04-10T09:30:39;17.60;99.90
816;DHT22;25928;51.062;13.752;2023-04-10T09:33:22;17.70;99.90
816;DHT22;25928;51.062;13.752;2023-04-10T09:35:48;17.70;99.90
816;DHT22;25928;51.062;13.752;2023-04-10T09:38:15;17.80;99.90
816;DHT22;25928;51.062;13.752;2023-04-10T09:40:42;17.90;99.90
816;DHT22;25928;51.062;13.752;2023-04-10T09:43:22;18.20;99.90
816;DHT22;25928;51.062;13.752;2023-04-10T09:45:55;18.20;99.90
816;DHT22;25928;51.062;13.752;2023-04-10T09:48:23;18.30;99.90
816;DHT22;25928;51.062;13.752;2023-04-10T09:50:49;18.20;99.90
816;DHT22;25928;51.062;13.752;2023-04-10T09:53:17;18.20;99.90
816;DHT22;25928;51.062;13.752;2023-04-10T09:55:47;18.20;99.90
816;DHT22;25928;51.062;13.752;2023-04-10T09:58:14;17.80;99.90
816;DHT22;25928;51.062;13.752;2023-04-10T10:00:44;17.60;99.90
816;DHT22;25928;51.062;13.752;2023-04-10T10:03:17;17.70;99.90
816;DHT22;25928;51.062;13.752;2023-04-10T10:05:50;17.90;99.90
816;DHT22;25928;51.062;13.752;2023-04-10T10:08:16;18.30;99.90
816;DHT22;25928;51.062;13.752;2023-04-10T10:10:53;18.30;99.90
816;DHT22;25928;51.062;13.752;2023-04-10T10:13:33;18.30;99.90
816;DHT22;25928;51.062;13.752;2023-04-10T10:19:17;18.80;99.90
816;DHT22;25928;51.062;13.752;2023-04-10T10:21:45;19.10;99.90
816;DHT22;25928;51.062;13.752;2023-04-10T10:24:12;19.40;99.90
816;DHT22;25928;51.062;13.752;2023-04-10T10:26:38;19.40;99.90
816;DHT22;25928;51.062;13.752;2023-04-10T10:29:06;18.90;99.90
816;DHT22;25928;51.062;13.752;2023-04-10T10:31:36;18.30;99.90
816;DHT22;25928;51.062;13.752;2023-04-10T10:34:02;18.20;99.90
816;DHT22;25928;51.062;13.752;2023-04-10T10:36:36;18.10;99.90
816;DHT22;25928;51.062;13.752;2023-04-10T10:39:31;17.90;99.90
816;DHT22;25928;51.062;13.752;2023-04-10T10:42:13;18.10;99.90
816;DHT22;25928;51.062;13.752;2023-04-10T10:47:18;18.30;99.90
816;DHT22;25928;51.062;13.752;2023-04-10T10:49:51;18.50;99.90
816;DHT22;25928;51.062;13.752;2023-04-10T10:52:36;18.70;99.90
816;DHT22;25928;51.062;13.752;2023-04-10T11:00:15;19.30;99.90
816;DHT22;25928;51.062;13.752;2023-04-10T11:02:41;19.50;99.90
816;DHT22;25928;51.062;13.752;2023-04-10T11:05:07;19.60;99.90
816;DHT22;25928;51.062;13.752;2023-04-10T11:11:00;20.10;99.90
816;DHT22;25928;51.062;13.752;2023-04-10T11:13:31;19.60;99.90
816;DHT22;25928;51.062;13.752;2023-04-10T11:15:57;19.00;99.90
816;DHT22;25928;51.062;13.752;2023-04-10T11:21:22;18.80;99.90
816;DHT22;25928;51.062;13.752;2023-04-10T11:32:03;18.80;99.90
816;DHT22;25928;51.062;13.752;2023-04-10T11:34:30;19.30;99.90
816;DHT22;25928;51.062;13.752;2023-04-10T11:36:58;19.40;99.90
816;DHT22;25928;51.062;13.752;2023-04-10T11:39:25;19.20;99.90
816;DHT22;25928;51.062;13.752;2023-04-10T11:41:52;18.90;99.90
816;DHT22;25928;51.062;13.752;2023-04-10T11:44:30;19.00;99.90
816;DHT22;25928;51.062;13.752;2023-04-10T11:46:56;19.20;99.90
816;DHT22;25928;51.062;13.752;2023-04-10T11:49:28;19.30;99.90
816;DHT22;25928;51.062;13.752;2023-04-10T11:51:54;19.60;99.90
816;DHT22;25928;51.062;13.752;2023-04-10T11:54:27;19.80;99.90
816;DHT22;25928;51.062;13.752;2023-04-10T11:59:31;19.30;99.90
816;DHT22;25928;51.062;13.752;2023-04-10T12:02:08;19.30;99.90
816;DHT22;25928;51.062;13.752;2023-04-10T12:04:35;19.10;99.90
816;DHT22;25928;51.062;13.752;2023-04-10T12:07:01;19.00;99.90
816;DHT22;25928;51.062;13.752;2023-04-10T12:09:27;19.20;99.90
816;DHT22;25928;51.062;13.752;2023-04-10T12:11:54;19.30;99.90
816;DHT22;25928;51.062;13.752;2023-04-10T12:14:21;19.40;99.90
816;DHT22;25928;51.062;13.752;2023-04-10T12:16:48;19.50;99.90
816;DHT22;25928;51.062;13.752;2023-04-10T12:19:14;19.60;99.90
816;DHT22;25928;51.062;13.752;2023-04-10T12:21:41;19.70;99.90
816;DHT22;25928;51.062;13.752;2023-04-10T12:24:08;19.90;99.90
816;DHT22;25928;51.062;13.752;2023-04-10T12:26:34;20.10;99.90
816;DHT22;25928;51.062;13.752;2023-04-10T12:28:59;20.10;99.90
816;DHT22;25928;51.062;13.752;2023-04-10T12:31:30;20.00;99.90
816;DHT22;25928;51.062;13.752;2023-04-10T12:33:56;19.90;99.90
816;DHT22;25928;51.062;13.752;2023-04-10T12:36:29;19.90;99.90
816;DHT22;25928;51.062;13.752;2023-04-10T12:39:06;19.70;99.90
816;DHT22;25928;51.062;13.752;2023-04-10T12:41:41;19.60;99.90
816;DHT22;25928;51.062;13.752;2023-04-10T12:44:11;19.60;99.90
816;DHT22;25928;51.062;13.752;2023-04-10T12:46:38;19.60;99.90
816;DHT22;25928;51.062;13.752;2023-04-10T12:49:13;19.70;99.90
816;DHT22;25928;51.062;13.752;2023-04-10T12:51:45;19.80;99.90
816;DHT22;25928;51.062;13.752;2023-04-10T12:54:24;19.80;99.90
816;DHT22;25928;51.062;13.752;2023-04-10T12:56:50;19.80;99.90
816;DHT22;25928;51.062;13.752;2023-04-10T12:59:16;19.80;99.90
816;DHT22;25928;51.062;13.752;2023-04-10T13:01:42;19.80;99.90
816;DHT22;25928;51.062;13.752;2023-04-10T13:04:08;19.70;99.90
816;DHT22;25928;51.062;13.752;2023-04-10T13:06:42;19.50;99.90
816;DHT22;25928;51.062;13.752;2023-04-10T13:09:07;19.40;99.90
816;DHT22;25928;51.062;13.752;2023-04-10T13:11:33;19.40;99.90
816;DHT22;25928;51.062;13.752;2023-04-10T13:13:59;19.70;99.90
816;DHT22;25928;51.062;13.752;2023-04-10T13:16:24;19.80;99.90
816;DHT22;25928;51.062;13.752;2023-04-10T13:18:50;19.70;99.90
816;DHT22;25928;51.062;13.752;2023-04-10T13:21:16;19.40;99.90
816;DHT22;25928;51.062;13.752;2023-04-10T13:23:47;19.40;99.90
816;DHT22;25928;51.062;13.752;2023-04-10T13:26:13;19.60;99.90
816;DHT22;25928;51.062;13.752;2023-04-10T13:28:38;19.50;99.90
816;DHT22;25928;51.062;13.752;2023-04-10T13:31:04;19.50;99.90
816;DHT22;25928;51.062;13.752;2023-04-10T13:33:30;19.70;99.90
816;DHT22;25928;51.062;13.752;2023-04-10T13:35:55;19.80;99.90
816;DHT22;25928;51.062;13.752;2023-04-10T13:38:21;19.70;99.90
816;DHT22;25928;51.062;13.752;2023-04-10T13:40:46;19.80;99.90
816;DHT22;25928;51.062;13.752;2023-04-10T13:43:12;19.60;99.90
816;DHT22;25928;51.062;13.752;2023-04-10T13:45:38;19.40;99.90
816;DHT22;25928;51.062;13.752;2023-04-10T13:48:03;19.30;99.90
816;DHT22;25928;51.062;13.752;2023-04-10T13:50:34;19.20;99.90
816;DHT22;25928;51.062;13.752;2023-04-10T13:53:00;19.20;99.90
816;DHT22;25928;51.062;13.752;2023-04-10T13:55:26;19.20;99.90
816;DHT22;25928;51.062;13.752;2023-04-10T13:57:51;19.10;99.90
816;DHT22;25928;51.062;13.752;2023-04-10T14:00:17;19.20;99.90
816;DHT22;25928;51.062;13.752;2023-04-10T14:02:43;19.20;99.90
816;DHT22;25928;51.062;13.752;2023-04-10T14:05:09;19.20;99.90
816;DHT22;25928;51.062;13.752;2023-04-10T14:07:34;19.30;99.90
816;DHT22;25928;51.062;13.752;2023-04-10T14:10:01;19.40;99.90
816;DHT22;25928;51.062;13.752;2023-04-10T14:12:26;19.30;99.90
816;DHT22;25928;51.062;13.752;2023-04-10T14:14:52;19.20;99.90
816;DHT22;25928;51.062;13.752;2023-04-10T14:17:18;19.30;99.90
816;DHT22;25928;51.062;13.752;2023-04-10T14:19:44;19.20;99.90
816;DHT22;25928;51.062;13.752;2023-04-10T14:22:16;19.10;99.90
816;DHT22;25928;51.062;13.752;2023-04-10T14:24:41;19.00;99.90
816;DHT22;25928;51.062;13.752;2023-04-10T14:27:07;19.00;99.90
816;DHT22;25928;51.062;13.752;2023-04-10T14:29:33;19.10;99.90
816;DHT22;25928;51.062;13.752;2023-04-10T14:31:58;19.10;99.90
816;DHT22;25928;51.062;13.752;2023-04-10T14:34:24;19.20;99.90
816;DHT22;25928;51.062;13.752;2023-04-10T14:36:50;19.10;99.90
816;DHT22;25928;51.062;13.752;2023-04-10T14:39:23;19.10;99.90
816;DHT22;25928;51.062;13.752;2023-04-10T14:41:49;19.20;99.90
816;DHT22;25928;51.062;13.752;2023-04-10T14:44:15;20.00;99.90
816;DHT22;25928;51.062;13.752;2023-04-10T14:46:41;21.10;99.90
816;DHT22;25928;51.062;13.752;2023-04-10T14:49:06;22.40;99.90
816;DHT22;25928;51.062;13.752;2023-04-10T14:51:32;23.40;99.90
816;DHT22;25928;51.062;13.752;2023-04-10T14:53:58;24.00;99.90
816;DHT22;25928;51.062;13.752;2023-04-10T14:56:23;24.10;99.90
816;DHT22;25928;51.062;13.752;2023-04-10T14:58:49;24.30;99.90
816;DHT22;25928;51.062;13.752;2023-04-10T15:01:15;24.70;99.90
816;DHT22;25928;51.062;13.752;2023-04-10T15:03:41;24.70;99.90
816;DHT22;25928;51.062;13.752;2023-04-10T15:06:06;25.00;99.90
816;DHT22;25928;51.062;13.752;2023-04-10T15:08:32;25.00;99.90
816;DHT22;25928;51.062;13.752;2023-04-10T15:10:58;25.00;99.90
816;DHT22;25928;51.062;13.752;2023-04-10T15:13:24;24.70;99.90
816;DHT22;25928;51.062;13.752;2023-04-10T15:15:50;24.80;99.90
816;DHT22;25928;51.062;13.752;2023-04-10T15:18:15;25.20;99.90
816;DHT22;25928;51.062;13.752;2023-04-10T15:20:42;25.50;99.90
816;DHT22;25928;51.062;13.752;2023-04-10T15:23:08;25.70;99.90
816;DHT22;25928;51.062;13.752;2023-04-10T15:25:34;25.70;99.90
816;DHT22;25928;51.062;13.752;2023-04-10T15:28:00;25.00;99.90
816;DHT22;25928;51.062;13.752;2023-04-10T15:30:25;24.70;99.90
816;DHT22;25928;51.062;13.752;2023-04-10T15:32:51;24.80;99.90
816;DHT22;25928;51.062;13.752;2023-04-10T15:35:17;25.30;99.90
816;DHT22;25928;51.062;13.752;2023-04-10T15:37:42;25.20;99.90
816;DHT22;25928;51.062;13.752;2023-04-10T15:40:08;24.60;99.90
816;DHT22;25928;51.062;13.752;2023-04-10T15:42:35;24.50;99.90
816;DHT22;25928;51.062;13.752;2023-04-10T15:45:01;24.70;99.90
816;DHT22;25928;51.062;13.752;2023-04-10T15:47:27;24.30;99.90
816;DHT22;25928;51.062;13.752;2023-04-10T15:49:55;23.90;99.90
816;DHT22;25928;51.062;13.752;2023-04-10T15:52:20;23.70;99.90
816;DHT22;25928;51.062;13.752;2023-04-10T15:54:46;23.50;99.90
816;DHT22;25928;51.062;13.752;2023-04-10T15:57:12;23.60;99.90
816;DHT22;25928;51.062;13.752;2023-04-10T15:59:37;24.10;99.90
816;DHT22;25928;51.062;13.752;2023-04-10T16:02:03;23.80;99.90
816;DHT22;25928;51.062;13.752;2023-04-10T16:04:29;22.90;99.90
816;DHT22;25928;51.062;13.752;2023-04-10T16:06:55;22.60;99.90
816;DHT22;25928;51.062;13.752;2023-04-10T16:09:21;22.80;99.90
816;DHT22;25928;51.062;13.752;2023-04-10T16:11:49;22.80;99.90
816;DHT22;25928;51.062;13.752;2023-04-10T16:14:15;23.10;99.90
816;DHT22;25928;51.062;13.752;2023-04-10T16:16:43;23.20;99.90
816;DHT22;25928;51.062;13.752;2023-04-10T16:19:09;23.10;99.90
816;DHT22;25928;51.062;13.752;2023-04-10T16:21:34;22.80;99.90
816;DHT22;25928;51.062;13.752;2023-04-10T16:24:00;22.80;99.90
816;DHT22;25928;51.062;13.752;2023-04-10T16:26:26;22.90;99.90
816;DHT22;25928;51.062;13.752;2023-04-10T16:28:51;23.00;99.90
816;DHT22;25928;51.062;13.752;2023-04-10T16:31:17;22.70;99.90